Time;durP1;ratioP1;P1;durP2;ratioP2;P2;SDS_P1;SDS_P2;PMS_P1;PMS_P2;Temp;Humidity;BMP_temperature;BMP_pressure;BME280_temperature;BME280_humidity;BME280_pressure;Samples;Min_cycle;Max_cycle;Signal;HPM_P1;HPM_P2
2022/04/01 00:01:56;;;;;;;7.30;3.17;;;;;;;3.31;45.75;97717.05;1760580;81;21159;-42
2022/04/01 00:04:22;;;;;;;4.00;3.10;;;;;;;3.31;46.30;97727.01;1760596;81;20971;-42
2022/04/01 00:06:47;;;;;;;6.25;3.20;;;;;;;3.33;46.04;97717.81;1760582;81;21001;-42
2022/04/01 00:09:13;;;;;;;4.85;3.00;;;;;;;3.31;46.15;97720.95;1760765;81;20991;-42
2022/04/01 00:11:39;;;;;;;9.55;3.25;;;;;;;3.24;46.42;97719.14;1761154;81;21038;-42
2022/04/01 00:14:05;;;;;;;4.72;2.80;;;;;;;3.21;46.46;97717.52;1761296;81;20983;-42
2022/04/01 00:16:31;;;;;;;7.50;3.30;;;;;;;3.24;47.16;97719.14;1761224;81;21456;-42
2022/04/01 00:18:58;;;;;;;7.67;3.20;;;;;;;3.19;47.59;97715.94;1761182;81;20998;-42
2022/04/01 00:21:24;;;;;;;5.25;2.90;;;;;;;3.15;48.05;97711.35;1761281;81;20998;-42
2022/04/01 00:23:50;;;;;;;4.17;2.75;;;;;;;3.23;47.56;97714.85;1761163;81;20971;-41
2022/04/01 00:26:16;;;;;;;4.35;2.92;;;;;;;3.04;48.35;97714.48;1761179;81;21481;-43
2022/04/01 00:28:41;;;;;;;7.03;3.10;;;;;;;3.01;48.89;97715.92;1761186;81;20995;-41
2022/04/01 00:31:09;;;;;;;8.15;3.08;;;;;;;3.03;49.05;97710.66;1761148;81;20988;-43
2022/04/01 00:33:35;;;;;;;6.53;3.22;;;;;;;2.89;49.71;97710.04;1761283;81;21018;-42
2022/04/01 00:36:01;;;;;;;4.47;3.12;;;;;;;2.93;49.36;97714.63;1761159;81;21049;-42
2022/04/01 00:38:27;;;;;;;6.58;3.00;;;;;;;2.93;49.56;97708.99;1761168;81;20998;-42
2022/04/01 00:40:52;;;;;;;4.80;3.08;;;;;;;2.85;50.91;97708.52;1761116;81;21034;-42
2022/04/01 00:43:31;;;;;;;4.08;2.85;;;;;;;2.82;50.57;97709.95;1761186;81;21594;-41
2022/04/01 00:45:57;;;;;;;4.65;3.12;;;;;;;2.70;51.57;97707.52;1760961;81;20995;-42
2022/04/01 00:48:24;;;;;;;6.92;3.27;;;;;;;2.67;52.15;97708.95;1761116;81;21062;-41
2022/04/01 00:50:50;;;;;;;6.35;3.00;;;;;;;2.67;52.40;97709.82;1761227;81;21450;-41
2022/04/01 00:53:21;;;;;;;8.85;2.83;;;;;;;2.65;52.24;97700.41;1761238;81;20999;-42
2022/04/01 00:55:47;;;;;;;7.55;3.12;;;;;;;2.52;53.45;97705.36;1761186;81;21033;-41
2022/04/01 00:58:13;;;;;;;3.75;2.83;;;;;;;2.49;54.17;97701.60;1761130;81;21026;-39
2022/04/01 01:00:39;;;;;;;4.67;2.83;;;;;;;2.61;52.49;97692.40;1761180;81;20979;-41
2022/04/01 01:03:06;;;;;;;9.88;3.47;;;;;;;2.59;53.24;97693.77;1761209;81;20991;-40
2022/04/01 01:05:32;;;;;;;5.95;3.35;;;;;;;2.49;55.15;97693.81;1761073;81;22021;-41
2022/04/01 01:07:58;;;;;;;5.87;2.58;;;;;;;2.54;54.25;97685.83;1760892;81;21499;-40
2022/04/01 01:10:25;;;;;;;5.28;3.00;;;;;;;2.48;54.11;97688.27;1760551;81;21029;-42
2022/04/01 01:12:52;;;;;;;4.97;3.22;;;;;;;2.44;53.67;97681.55;1760722;81;21002;-41
2022/04/01 01:15:19;;;;;;;5.58;3.60;;;;;;;2.39;53.19;97683.05;1760614;81;21606;-42
2022/04/01 01:17:45;;;;;;;5.28;2.90;;;;;;;2.28;53.80;97674.48;1760682;81;21001;-41
2022/04/01 01:20:15;;;;;;;5.90;2.87;;;;;;;2.33;53.45;97679.90;1760807;81;20979;-40
2022/04/01 01:22:43;;;;;;;2.92;2.30;;;;;;;2.25;53.60;97674.62;1760617;81;21025;-41
2022/04/01 01:25:12;;;;;;;4.45;3.12;;;;;;;2.21;54.32;97680.88;1759959;81;21424;-40
2022/04/01 01:27:40;;;;;;;5.78;2.60;;;;;;;2.23;53.73;97676.91;1760725;81;20991;-40
2022/04/01 01:30:10;;;;;;;4.83;2.90;;;;;;;2.24;53.45;97672.95;1760563;81;21009;-42
2022/04/01 01:32:36;;;;;;;5.95;2.87;;;;;;;2.28;53.43;97674.48;1760523;81;21010;-42
2022/04/01 01:35:04;;;;;;;5.80;2.65;;;;;;;2.21;53.85;97680.88;1760543;81;21002;-42
2022/04/01 01:37:30;;;;;;;6.58;2.47;;;;;;;2.15;54.55;97679.02;1760581;81;20992;-40
2022/04/01 01:39:56;;;;;;;3.25;2.60;;;;;;;2.16;54.23;97672.47;1760507;81;21007;-40
2022/04/01 01:42:21;;;;;;;6.22;2.75;;;;;;;2.21;53.90;97673.56;1760404;81;21037;-44
2022/04/01 01:44:47;;;;;;;5.20;2.65;;;;;;;2.11;54.77;97674.43;1760538;81;21042;-42
2022/04/01 01:47:13;;;;;;;3.30;2.37;;;;;;;2.09;54.22;97676.25;1760547;81;21523;-40
2022/04/01 01:54:42;;;;;;;5.53;3.27;;;;;;;1.96;54.82;97680.34;1760533;81;21516;-40
2022/04/01 01:54:54;;;;;;;4.55;2.47;;;;;;;1.88;57.23;97668.58;1760627;81;21022;-41
2022/04/01 01:57:23;;;;;;;3.33;2.27;;;;;;;1.95;56.26;97668.28;1760457;81;21046;-40
2022/04/01 01:59:51;;;;;;;5.50;2.80;;;;;;;1.86;56.76;97660.03;1760609;81;21606;-39
2022/04/01 02:02:18;;;;;;;5.67;2.30;;;;;;;1.82;56.51;97658.50;1760488;81;21010;-40
2022/04/01 02:04:46;;;;;;;5.20;2.55;;;;;;;1.78;57.01;97648.33;1760686;81;21010;-39
2022/04/01 02:07:12;;;;;;;3.83;2.67;;;;;;;1.85;56.19;97645.37;1760697;81;21006;-40
2022/04/01 02:09:43;;;;;;;5.08;2.58;;;;;;;1.86;56.45;97647.07;1760304;81;21065;-42
2022/04/01 02:12:07;;;;;;;5.92;2.75;;;;;;;1.84;56.98;97645.02;1760157;81;21018;-42
2022/04/01 02:14:34;;;;;;;4.95;2.75;;;;;;;1.79;56.30;97650.86;1760579;81;20975;-41
2022/04/01 02:17:00;;;;;;;6.17;2.65;;;;;;;1.75;57.07;97646.73;1760737;81;21038;-41
2022/04/01 02:19:26;;;;;;;4.45;2.30;;;;;;;1.72;57.70;97641.68;1760510;81;20979;-42
2022/04/01 02:21:53;;;;;;;3.75;2.20;;;;;;;1.63;58.67;97645.99;1760498;81;21413;-40
2022/04/01 02:24:21;;;;;;;4.95;2.50;;;;;;;1.63;58.62;97636.92;1760637;81;21037;-42
2022/04/01 02:26:47;;;;;;;8.20;2.50;;;;;;;1.56;59.33;97638.11;1760470;81;21573;-39
2022/04/01 02:29:20;;;;;;;5.83;2.62;;;;;;;1.37;60.40;97635.52;1760735;81;20999;-41
2022/04/01 02:31:52;;;;;;;10.35;2.67;;;;;;;1.31;61.20;97636.61;1760491;81;21046;-41
2022/04/01 02:34:17;;;;;;;7.60;2.72;;;;;;;1.27;61.38;97641.55;1759543;81;20983;-39
2022/04/01 02:36:43;;;;;;;4.65;2.40;;;;;;;1.19;62.21;97638.47;1760632;81;21456;-40
2022/04/01 02:39:09;;;;;;;6.40;2.83;;;;;;;1.16;63.30;97639.42;1760450;81;21003;-41
2022/04/01 02:41:35;;;;;;;5.92;2.60;;;;;;;1.13;63.05;97634.41;1749226;80;21091;-42
2022/04/01 02:44:14;;;;;;;2.90;2.30;;;;;;;1.09;63.77;97634.98;1748302;82;21003;-42
2022/04/01 02:46:43;;;;;;;2.90;2.60;;;;;;;1.10;63.15;97626.30;1748368;81;21004;-41
2022/04/01 02:49:15;;;;;;;6.30;2.70;;;;;;;1.04;63.92;97628.33;1748261;82;21503;-43
2022/04/01 02:51:44;;;;;;;3.62;2.70;;;;;;;0.99;64.48;97627.22;1748251;82;20987;-42
2022/04/01 02:54:10;;;;;;;5.62;2.62;;;;;;;0.87;65.42;97629.87;1748248;82;20987;-42
2022/04/01 02:56:38;;;;;;;6.22;2.50;;;;;;;0.79;66.54;97630.66;1748340;82;20988;-41
2022/04/01 02:59:07;;;;;;;4.33;2.65;;;;;;;0.81;66.13;97628.84;1748264;82;20987;-41
2022/04/01 03:01:38;;;;;;;4.95;2.60;;;;;;;0.79;66.57;97625.95;1748184;82;21000;-42
2022/04/01 03:04:09;;;;;;;5.72;2.12;;;;;;;0.73;66.32;97625.30;1718420;82;21140;-42
2022/04/01 03:06:38;;;;;;;6.75;2.72;;;;;;;0.59;68.43;97622.45;1748278;82;20999;-40
2022/04/01 03:09:06;;;;;;;6.03;2.70;;;;;;;0.53;69.39;97623.55;1748258;81;21536;-41
2022/04/01 03:11:32;;;;;;;5.72;2.30;;;;;;;0.55;68.95;97627.37;1748326;81;20991;-42
2022/04/01 03:13:58;;;;;;;5.55;2.52;;;;;;;0.59;67.99;97629.38;1748377;82;21031;-42
2022/04/01 03:16:25;;;;;;;6.65;2.70;;;;;;;0.56;67.80;97618.69;1748399;82;21035;-42
2022/04/01 03:18:51;;;;;;;15.95;3.95;;;;;;;0.49;68.03;97634.06;1748354;82;20996;-40
2022/04/01 03:21:17;;;;;;;7.28;2.85;;;;;;;0.43;69.69;97622.70;1748206;82;21043;-40
2022/04/01 03:23:43;;;;;;;3.80;2.60;;;;;;;0.45;69.30;97622.17;1748201;82;20953;-41
2022/04/01 03:26:10;;;;;;;8.90;2.83;;;;;;;0.42;69.71;97623.59;1748503;82;20999;-40
2022/04/01 03:28:36;;;;;;;6.83;3.08;;;;;;;0.40;70.62;97631.86;1748641;82;21062;-42
2022/04/01 03:31:06;;;;;;;3.70;2.50;;;;;;;0.41;71.43;97630.97;1748286;82;21043;-41
2022/04/01 03:33:34;;;;;;;4.75;2.92;;;;;;;0.34;71.82;97629.91;1748430;82;20999;-41
2022/04/01 03:36:00;;;;;;;4.90;2.90;;;;;;;0.38;70.46;97635.38;1748235;82;20987;-43
2022/04/01 03:38:27;;;;;;;4.22;2.65;;;;;;;0.29;72.25;97629.71;1748387;82;21484;-42
2022/04/01 03:40:53;;;;;;;10.63;2.97;;;;;;;0.21;72.37;97631.32;1748557;82;21028;-41
2022/04/01 03:43:21;;;;;;;5.85;2.77;;;;;;;0.22;71.87;97630.86;1748273;81;20988;-40
2022/04/01 03:45:48;;;;;;;3.20;2.50;;;;;;;0.22;70.77;97627.84;1748578;81;21376;-41
2022/04/01 03:48:31;;;;;;;;;;;;;;;0.10;72.45;97634.33;1744530;82;21012;-43
2022/04/01 03:50:57;;;;;;;5.83;2.87;;;;;;;0.09;73.05;97634.39;1734925;82;20115;-42
2022/04/01 03:53:28;;;;;;;4.03;2.87;;;;;;;0.09;72.22;97627.92;1734892;82;21156;-41
2022/04/01 03:55:56;;;;;;;5.80;2.83;;;;;;;0.05;73.76;97635.42;1734955;83;21004;-42
2022/04/01 03:58:28;;;;;;;3.37;2.33;;;;;;;-0.06;74.71;97622.45;1734863;83;21000;-41
2022/04/01 04:00:54;;;;;;;4.08;2.47;;;;;;;-0.04;72.92;97637.91;1734795;83;21024;-40
2022/04/01 04:03:21;;;;;;;4.45;3.17;;;;;;;-0.08;73.92;97636.35;1734854;83;21031;-42
2022/04/01 04:05:48;;;;;;;3.95;2.83;;;;;;;-0.08;72.99;97637.18;1735191;83;21501;-42
2022/04/01 04:08:18;;;;;;;6.30;2.77;;;;;;;-0.14;74.80;97645.19;1735218;83;21035;-42
2022/04/01 04:10:51;;;;;;;5.33;3.33;;;;;;;-0.12;73.94;97636.92;1734819;82;21556;-42
2022/04/01 04:13:19;;;;;;;3.75;2.50;;;;;;;-0.13;74.17;97642.14;1735023;82;21004;-41
2022/04/01 04:16:08;;;;;;;4.12;2.70;;;;;;;-0.16;74.88;97640.95;1735111;82;20976;-42
2022/04/01 04:18:41;;;;;;;5.83;2.87;;;;;;;-0.24;75.01;97644.70;1734894;82;20961;-42
2022/04/01 04:21:12;;;;;;;4.37;2.67;;;;;;;-0.15;73.53;97643.48;1735049;83;21000;-40
2022/04/01 04:23:58;;;;;;;5.35;3.00;;;;;;;-0.21;73.79;97648.91;1734997;83;20996;-41
2022/04/01 04:26:35;;;;;;;4.58;3.10;;;;;;;-0.29;74.30;97644.03;1735301;83;21441;-42
2022/04/01 04:29:10;;;;;;;5.70;3.42;;;;;;;-0.39;75.15;97646.10;1735132;82;20953;-40
2022/04/01 04:31:38;;;;;;;7.03;3.42;;;;;;;-0.46;75.50;97645.94;1734972;83;21027;-42
2022/04/01 04:34:11;;;;;;;7.35;3.27;;;;;;;-0.33;75.77;97654.52;1735063;83;21476;-42
2022/04/01 04:36:40;;;;;;;7.67;3.50;;;;;;;-0.34;75.00;97658.86;1735135;82;21043;-40
2022/04/01 04:39:16;;;;;;;5.55;3.42;;;;;;;-0.53;76.09;97665.14;1735032;82;21024;-42
2022/04/01 04:41:43;;;;;;;4.78;3.25;;;;;;;-0.50;76.20;97646.95;1731727;82;20996;-42
2022/04/01 04:44:11;;;;;;;5.55;3.60;;;;;;;-0.54;76.84;97654.44;1724741;83;21548;-44
2022/04/01 04:46:41;;;;;;;4.15;3.12;;;;;;;-0.53;75.59;97657.39;1724583;83;20993;-42
2022/04/01 04:49:09;;;;;;;3.92;2.80;;;;;;;-0.56;75.92;97661.82;1724606;83;21378;-42
2022/04/01 04:51:35;;;;;;;3.85;3.42;;;;;;;-0.55;75.55;97663.52;1724673;83;21052;-42
2022/04/01 04:54:03;;;;;;;7.15;4.10;;;;;;;-0.65;75.74;97660.44;1724764;83;21469;-42
2022/04/01 04:56:31;;;;;;;5.90;3.55;;;;;;;-0.72;76.91;97662.85;1724846;83;21032;-42
2022/04/01 04:58:57;;;;;;;4.53;3.15;;;;;;;-0.69;76.84;97667.88;1724637;83;21581;-45
2022/04/01 05:01:46;;;;;;;7.25;3.70;;;;;;;-0.72;76.84;97658.52;1724572;83;21001;-43
2022/04/01 05:04:29;;;;;;;6.10;3.45;;;;;;;-0.74;76.69;97668.06;1724176;83;20996;-42
2022/04/01 05:07:30;;;;;;;7.10;4.35;;;;;;;-0.78;77.12;97655.72;1712671;82;21032;-42
2022/04/01 05:10:16;;;;;;;9.83;4.10;;;;;;;-0.74;76.52;97662.06;1723355;82;21505;-42
2022/04/01 05:13:17;;;;;;;5.40;3.50;;;;;;;-0.73;76.83;97663.73;1724691;83;20992;-42
2022/04/01 05:15:32;;;;;;;7.45;3.85;;;;;;;-0.71;76.96;97661.94;1716053;83;21470;-42
2022/04/01 05:18:14;;;;;;;5.22;3.22;;;;;;;-0.67;76.66;97664.83;1724472;82;21490;-42
2022/04/01 05:20:55;;;;;;;6.80;3.12;;;;;;;-0.67;77.37;97671.28;1724606;82;21005;-42
2022/04/01 05:23:55;;;;;;;4.35;3.30;;;;;;;-0.68;76.91;97665.25;1724577;83;21003;-42
2022/04/01 05:26:38;;;;;;;4.17;3.33;;;;;;;-0.67;77.19;97654.04;1724555;82;21474;-42
2022/04/01 05:29:02;;;;;;;5.15;3.20;;;;;;;-0.60;76.72;97668.84;1724391;83;20957;-42
2022/04/01 05:31:34;;;;;;;5.67;3.35;;;;;;;-0.75;77.66;97657.33;1724608;83;21003;-42
2022/04/01 05:34:23;;;;;;;3.95;3.22;;;;;;;-0.73;77.42;97661.16;1724544;83;21008;-41
2022/04/01 05:36:51;;;;;;;6.83;3.50;;;;;;;-0.77;77.44;97666.88;1724519;82;21028;-41
2022/04/01 05:39:17;;;;;;;;;;;;;;;-0.78;77.95;97675.08;1727167;83;20969;-42
2022/04/01 05:41:46;;;;;;;7.00;3.62;;;;;;;-0.82;77.65;97670.06;1724674;83;20148;-43
2022/04/01 05:44:13;;;;;;;7.30;3.90;;;;;;;-0.85;78.24;97665.03;1724446;83;21028;-42
2022/04/01 05:46:40;;;;;;;;;;;;;;;-0.86;78.57;97675.78;1727203;83;21462;-42
2022/04/01 05:49:06;;;;;;;7.90;4.17;;;;;;;-0.80;78.16;97666.97;1724712;82;20107;-43
2022/04/01 05:51:33;;;;;;;5.22;3.50;;;;;;;-0.86;78.70;97666.75;1724745;83;21012;-42
2022/04/01 05:54:00;;;;;;;10.03;4.50;;;;;;;-0.83;78.32;97667.94;1724711;83;21040;-43
2022/04/01 05:56:31;;;;;;;7.67;3.87;;;;;;;-0.72;77.53;97668.02;1724762;83;21458;-42
2022/04/01 05:58:55;;;;;;;4.83;3.52;;;;;;;-0.84;78.11;97667.98;1724238;83;21565;-42
2022/04/01 06:01:35;;;;;;;5.78;3.77;;;;;;;-0.85;78.45;97659.87;1724499;83;21078;-42
2022/04/01 06:04:46;;;;;;;8.28;4.20;;;;;;;-0.85;78.62;97659.41;1724168;83;21103;-43
2022/04/01 06:07:51;;;;;;;6.50;4.08;;;;;;;-0.81;78.50;97670.02;1724106;83;20989;-43
2022/04/01 06:11:03;;;;;;;10.80;4.92;;;;;;;-0.83;78.60;97667.94;1724542;83;21787;-43
2022/04/01 06:14:02;;;;;;;7.65;4.83;;;;;;;-0.78;78.49;97662.17;1724629;82;21004;-43
2022/04/01 06:16:45;;;;;;;6.92;4.55;;;;;;;-0.82;78.34;97670.06;1724544;83;21004;-43
2022/04/01 06:19:24;;;;;;;4.72;3.65;;;;;;;-0.83;78.86;97666.65;1723566;83;21040;-42
2022/04/01 06:22:06;;;;;;;6.35;4.60;;;;;;;-0.73;78.23;97665.86;1724630;83;21588;-43
2022/04/01 06:25:03;;;;;;;7.20;4.00;;;;;;;-0.84;78.63;97671.41;1704172;83;21482;-42
2022/04/01 06:27:38;;;;;;;;;;;;;;;-0.75;78.30;97671.98;1727127;82;21008;-43
2022/04/01 06:30:11;;;;;;;8.08;4.75;;;;;;;-0.79;78.76;97669.50;1724576;82;20135;-42
2022/04/01 06:32:53;;;;;;;8.63;4.90;;;;;;;-0.69;78.14;97671.33;1724471;83;20969;-43
2022/04/01 06:35:29;;;;;;;7.12;5.67;;;;;;;-0.70;77.79;97669.63;1724598;83;21846;-43
2022/04/01 06:38:05;;;;;;;8.00;4.65;;;;;;;-0.63;78.30;97683.17;1724595;83;21501;-43
2022/04/01 06:40:45;;;;;;;9.83;5.08;;;;;;;-0.62;77.72;97677.95;1724547;83;21535;-42
2022/04/01 06:43:11;;;;;;;9.03;4.62;;;;;;;-0.63;78.21;97684.46;1725092;83;21008;-42
2022/04/01 06:45:37;;;;;;;8.60;4.70;;;;;;;-0.62;77.99;97679.25;1726858;83;21536;-44
2022/04/01 06:48:04;;;;;;;12.10;5.30;;;;;;;-0.60;77.91;97670.13;1726863;83;20980;-43
2022/04/01 06:50:30;;;;;;;10.08;6.03;;;;;;;-0.58;77.93;97676.11;1727018;83;21000;-42
2022/04/01 06:52:56;;;;;;;9.58;5.40;;;;;;;-0.53;77.84;97678.50;1726840;82;21485;-42
2022/04/01 06:55:22;;;;;;;9.53;5.58;;;;;;;-0.54;78.38;97681.55;1726809;83;21474;-43
2022/04/01 06:57:48;;;;;;;11.40;5.53;;;;;;;-0.53;78.64;97685.80;1726862;83;21020;-43
2022/04/01 07:00:14;;;;;;;7.30;5.00;;;;;;;-0.45;77.69;97678.63;1726800;83;21004;-44
2022/04/01 07:02:41;;;;;;;10.55;5.33;;;;;;;-0.45;77.65;97682.50;1726830;83;21008;-44
2022/04/01 07:05:08;;;;;;;12.87;7.60;;;;;;;-0.52;78.10;97683.62;1727131;83;21044;-43
2022/04/01 07:07:35;;;;;;;10.95;6.58;;;;;;;-0.42;77.96;97682.82;1727086;83;21003;-45
2022/04/01 07:10:04;;;;;;;13.88;5.62;;;;;;;-0.40;78.42;97675.43;1727013;83;21008;-45
2022/04/01 07:12:32;;;;;;;13.55;5.65;;;;;;;-0.29;77.90;97681.91;1726815;83;21048;-43
2022/04/01 07:14:59;;;;;;;11.08;5.78;;;;;;;-0.31;77.91;97674.68;1726831;83;21008;-44
2022/04/01 07:17:25;;;;;;;10.60;5.30;;;;;;;-0.28;77.52;97675.86;1727003;83;21001;-44
2022/04/01 07:19:52;;;;;;;13.53;6.10;;;;;;;-0.23;77.08;97678.66;1726821;83;21505;-45
2022/04/01 07:22:18;;;;;;;17.57;5.33;;;;;;;-0.27;77.20;97680.14;1726861;83;21015;-43
2022/04/01 07:24:44;;;;;;;18.55;5.80;;;;;;;-0.22;76.88;97673.04;1726879;83;21001;-44
2022/04/01 07:27:11;;;;;;;13.95;6.22;;;;;;;-0.21;76.63;97669.11;1726774;83;21028;-44
2022/04/01 07:29:37;;;;;;;8.80;5.60;;;;;;;-0.23;77.06;97667.50;1727034;83;21549;-45
2022/04/01 07:34:49;;;;;;;46.83;9.10;;;;;;;-0.20;77.23;97676.40;1726999;83;20988;-43
2022/04/01 07:37:15;;;;;;;10.45;6.03;;;;;;;-0.25;77.50;97669.30;1726896;83;21039;-43
2022/04/01 07:39:41;;;;;;;14.95;6.83;;;;;;;-0.21;76.86;97674.28;1726902;83;21458;-43
2022/04/01 07:42:07;;;;;;;14.95;6.12;;;;;;;-0.25;76.86;97671.42;1727077;83;21035;-43
2022/04/01 07:44:33;;;;;;;10.08;6.05;;;;;;;-0.29;77.63;97675.03;1736641;82;21001;-44
2022/04/01 07:47:00;;;;;;;10.72;6.25;;;;;;;-0.18;77.52;97673.34;1737211;82;21540;-44
2022/04/01 07:49:26;;;;;;;14.75;6.37;;;;;;;-0.13;77.05;97676.56;1737284;82;21004;-43
2022/04/01 07:51:52;;;;;;;17.12;6.30;;;;;;;-0.03;76.60;97677.08;1737037;82;20992;-43
2022/04/01 07:54:18;;;;;;;13.40;6.95;;;;;;;-0.05;76.54;97678.42;1737078;82;20980;-44
2022/04/01 07:56:44;;;;;;;10.53;6.03;;;;;;;0.01;76.81;97674.75;1737048;82;20980;-44
2022/04/01 07:59:15;;;;;;;9.50;6.28;;;;;;;0.17;76.44;97668.55;1737116;82;21047;-43
2022/04/01 08:01:41;;;;;;;13.58;6.67;;;;;;;0.25;76.29;97665.65;1733683;82;21493;-43
2022/04/01 08:04:08;;;;;;;9.13;5.45;;;;;;;0.37;75.77;97659.53;1737167;82;21003;-44
2022/04/01 08:06:34;;;;;;;12.82;5.87;;;;;;;0.46;75.08;97669.97;1736988;82;21004;-46
2022/04/01 08:09:00;;;;;;;9.53;6.08;;;;;;;0.36;75.07;97663.47;1736953;82;21497;-43
2022/04/01 08:11:26;;;;;;;9.08;6.33;;;;;;;0.29;75.03;97661.60;1737061;82;20980;-45
2022/04/01 08:13:53;;;;;;;17.10;6.33;;;;;;;0.24;75.18;97655.77;1737019;82;21012;-43
2022/04/01 08:16:19;;;;;;;12.20;6.30;;;;;;;0.26;75.84;97659.59;1708538;82;21132;-43
2022/04/01 08:18:45;;;;;;;11.95;6.10;;;;;;;0.34;75.63;97663.52;1737142;82;20995;-45
2022/04/01 08:21:11;;;;;;;12.82;6.83;;;;;;;0.28;76.22;97665.08;1736989;82;20992;-44
2022/04/01 08:23:37;;;;;;;14.28;7.35;;;;;;;0.42;75.49;97668.84;1736991;82;21012;-43
2022/04/01 08:26:05;;;;;;;16.50;9.75;;;;;;;0.41;75.25;97672.34;1737118;82;21493;-46
2022/04/01 08:28:32;;;;;;;15.63;9.15;;;;;;;0.51;75.35;97674.50;1737304;82;20995;-43
2022/04/01 08:30:57;;;;;;;13.98;8.80;;;;;;;0.63;75.43;97677.02;1737263;82;21639;-45
2022/04/01 08:33:23;;;;;;;9.90;6.67;;;;;;;0.71;74.96;97681.45;1737088;82;20990;-44
2022/04/01 08:35:50;;;;;;;12.35;5.87;;;;;;;0.62;74.64;97696.06;1737081;82;21584;-44
2022/04/01 08:38:16;;;;;;;11.50;6.40;;;;;;;0.75;74.45;97680.88;1737294;82;21051;-45
2022/04/01 08:40:43;;;;;;;14.35;8.58;;;;;;;0.66;74.33;97675.62;1736974;82;21024;-43
2022/04/01 08:43:09;;;;;;;13.35;5.85;;;;;;;0.79;74.62;97688.05;1733457;82;21486;-46
2022/04/01 08:45:37;;;;;;;8.03;4.62;;;;;;;0.80;73.77;97671.61;1724801;83;21036;-44
2022/04/01 08:48:04;;;;;;;;;;;;;;;0.82;74.20;97681.00;1727157;83;21501;-42
2022/04/01 08:50:31;;;;;;;11.93;5.22;;;;;;;0.71;73.87;97682.74;1724583;83;20117;-44
2022/04/01 08:52:57;;;;;;;7.30;5.42;;;;;;;0.79;73.88;97692.77;1724882;83;21438;-44
2022/04/01 08:55:22;;;;;;;9.35;5.25;;;;;;;0.69;74.48;97688.44;1724583;82;21000;-44
2022/04/01 08:57:50;;;;;;;12.93;7.28;;;;;;;0.75;73.94;97699.81;1724570;82;20980;-45
2022/04/01 09:00:22;;;;;;;14.10;6.72;;;;;;;0.69;74.16;97693.61;1724648;83;21005;-43
2022/04/01 09:03:02;;;;;;;16.95;8.35;;;;;;;0.69;74.58;97692.31;1724537;83;21458;-43
2022/04/01 09:05:28;;;;;;;13.80;8.90;;;;;;;0.65;75.45;97696.38;1719438;82;21493;-43
2022/04/01 09:08:08;;;;;;;17.55;7.83;;;;;;;0.78;74.60;97688.95;1724478;83;20969;-44
2022/04/01 09:10:58;;;;;;;20.10;9.40;;;;;;;0.75;74.95;97690.76;1724291;83;20950;-44
2022/04/01 09:13:31;;;;;;;15.20;7.80;;;;;;;0.59;76.31;97688.41;1723181;83;21008;-43
2022/04/01 09:15:58;;;;;;;12.40;5.87;;;;;;;0.80;75.30;97696.19;1723639;83;21048;-42
2022/04/01 09:18:40;;;;;;;15.53;7.08;;;;;;;0.71;74.79;97686.63;1724704;83;20997;-45
2022/04/01 09:21:12;;;;;;;17.73;8.28;;;;;;;0.67;75.26;97685.05;1724534;83;20984;-41
2022/04/01 09:23:39;;;;;;;21.12;8.58;;;;;;;0.59;75.17;97701.81;1724498;82;21032;-42
2022/04/01 09:26:06;;;;;;;11.08;6.22;;;;;;;0.49;75.35;97702.18;1724641;83;21038;-43
2022/04/01 09:28:39;;;;;;;16.23;6.45;;;;;;;0.21;76.94;97705.00;1724871;83;21016;-43
2022/04/01 09:31:12;;;;;;;12.05;5.10;;;;;;;0.43;76.01;97697.23;1724693;83;20997;-43
2022/04/01 09:33:47;;;;;;;12.25;5.40;;;;;;;0.46;76.63;97692.41;1724627;82;20966;-43
2022/04/01 09:36:20;;;;;;;9.13;5.45;;;;;;;0.48;76.16;97689.30;1724622;82;20977;-46
2022/04/01 09:38:59;;;;;;;13.75;7.53;;;;;;;0.54;76.47;97687.75;1724581;83;20985;-42
2022/04/01 09:41:47;;;;;;;11.53;7.28;;;;;;;0.63;76.54;97691.25;1724713;83;20985;-47
2022/04/01 09:44:17;;;;;;;17.65;10.05;;;;;;;0.70;75.72;97687.98;1724935;83;21021;-41
2022/04/01 09:46:59;;;;;;;19.55;11.97;;;;;;;0.60;75.79;97683.64;1726347;82;21028;-41
2022/04/01 09:49:46;;;;;;;20.10;8.25;;;;;;;0.65;76.15;97683.44;1726832;83;21046;-43
2022/04/01 09:52:12;;;;;;;11.93;6.40;;;;;;;0.61;76.75;97680.59;1725415;82;21017;-41
2022/04/01 09:54:46;;;;;;;11.80;5.72;;;;;;;0.71;76.40;97686.63;1726787;82;21513;-47
2022/04/01 09:57:18;;;;;;;13.83;5.33;;;;;;;0.68;75.77;97678.98;1726781;82;21056;-41
2022/04/01 09:59:46;;;;;;;14.15;7.53;;;;;;;0.62;76.46;97690.88;1726946;82;20993;-43
2022/04/01 10:02:12;;;;;;;13.38;9.10;;;;;;;0.60;76.49;97689.25;1726944;82;21020;-41
2022/04/01 10:04:38;;;;;;;11.15;6.83;;;;;;;0.43;77.92;97688.18;1726760;82;21005;-42
2022/04/01 10:07:04;;;;;;;16.00;6.08;;;;;;;0.53;77.14;97684.80;1726775;83;21002;-43
2022/04/01 10:09:31;;;;;;;15.68;7.25;;;;;;;0.47;77.89;97679.39;1726760;83;21005;-41
2022/04/01 10:12:05;;;;;;;12.85;6.80;;;;;;;0.60;77.44;97684.94;1726831;83;21549;-42
2022/04/01 10:14:32;;;;;;;15.88;5.97;;;;;;;0.64;77.66;97685.19;1726805;83;21558;-44
2022/04/01 10:17:01;;;;;;;13.40;6.28;;;;;;;0.63;77.51;97687.83;1726235;83;20997;-41
2022/04/01 10:19:34;;;;;;;17.62;7.05;;;;;;;0.63;77.89;97686.54;1726823;83;20953;-40
2022/04/01 10:22:03;;;;;;;14.13;6.72;;;;;;;0.62;77.63;97690.88;1726949;83;21005;-42
2022/04/01 10:24:59;;;;;;;19.65;7.22;;;;;;;0.68;77.84;97695.80;1725836;82;21497;-42
2022/04/01 10:27:33;;;;;;;10.82;6.75;;;;;;;0.72;77.74;97695.22;1725858;82;21565;-45
2022/04/01 10:30:00;;;;;;;21.12;6.25;;;;;;;0.70;77.99;97695.73;1725472;83;21033;-44
2022/04/01 10:32:30;;;;;;;14.73;6.78;;;;;;;0.50;77.83;97702.55;1724780;83;21044;-47
2022/04/01 10:34:58;;;;;;;16.52;7.97;;;;;;;0.67;77.40;97695.85;1726582;83;21013;-42
2022/04/01 10:37:27;;;;;;;10.72;6.40;;;;;;;0.73;77.57;97704.22;1726290;82;21506;-41
2022/04/01 10:40:00;;;;;;;16.57;6.45;;;;;;;0.84;76.87;97704.23;1712985;82;20981;-43
2022/04/01 10:42:37;;;;;;;14.13;6.37;;;;;;;0.93;76.88;97697.38;1720451;82;21086;-41
2022/04/01 10:45:21;;;;;;;11.60;5.17;;;;;;;0.94;76.47;97702.93;1741389;82;21587;-47
2022/04/01 10:53:39;;;;;;;8.03;4.33;;;;;;;0.98;76.99;97709.65;1705491;83;21020;-42
2022/04/01 10:56:27;;;;;;;5.60;3.45;;;;;;;1.00;77.11;97701.39;1708737;83;21568;-44
2022/04/01 10:59:12;;;;;;;15.35;5.55;;;;;;;0.99;76.90;97700.16;1706201;84;21013;-42
2022/04/01 11:02:00;;;;;;;12.28;6.72;;;;;;;0.93;76.99;97709.03;1677482;85;20969;-44
2022/04/01 11:04:30;;;;;;;17.20;7.37;;;;;;;0.86;78.37;97709.73;1674259;85;21049;-43
2022/04/01 11:07:06;;;;;;;14.98;6.17;;;;;;;0.96;78.24;97698.52;1677870;85;20990;-43
2022/04/01 11:09:46;;;;;;;12.58;5.75;;;;;;;1.02;78.23;97698.28;1677765;85;21060;-43
2022/04/01 11:12:21;;;;;;;13.20;5.87;;;;;;;1.07;77.79;97695.02;1676707;85;21108;-44
2022/04/01 11:15:20;;;;;;;21.57;6.15;;;;;;;1.05;77.78;97686.95;1676850;83;21064;-45
2022/04/01 11:17:48;;;;;;;13.75;8.45;;;;;;;1.04;92.07;97682.23;1676968;83;20973;-41
2022/04/01 11:20:22;;;;;;;75.00;15.05;;;;;;;1.02;83.47;97686.64;1675722;86;21004;-43
2022/04/01 11:23:00;;;;;;;23.27;9.35;;;;;;;1.03;79.45;97683.13;1675962;86;21008;-44
2022/04/01 11:25:32;;;;;;;19.27;6.45;;;;;;;0.93;79.40;97674.92;1675735;86;21020;-45
2022/04/01 11:28:11;;;;;;;12.82;5.60;;;;;;;1.12;78.94;97687.08;1675984;86;21608;-44
2022/04/01 11:30:51;;;;;;;16.17;6.25;;;;;;;0.96;79.05;97692.05;1719300;82;20988;-42
2022/04/01 11:33:20;;;;;;;17.70;5.10;;;;;;;1.15;79.00;97693.42;1715131;83;20973;-41
2022/04/01 11:35:50;;;;;;;21.97;7.25;;;;;;;1.26;78.90;97680.02;1723932;82;21510;-44
2022/04/01 11:38:20;;;;;;;24.60;11.00;;;;;;;1.30;78.16;97685.44;1724005;83;21035;-41
2022/04/01 11:40:50;;;;;;;16.62;6.53;;;;;;;1.47;78.03;97690.70;1724193;83;21008;-43
2022/04/01 11:43:19;;;;;;;47.25;7.70;;;;;;;1.57;77.74;97689.03;1704253;83;21400;-43
2022/04/01 11:45:51;;;;;;;21.23;5.90;;;;;;;1.68;77.92;97682.91;1724368;83;21323;-44
2022/04/01 11:48:28;;;;;;;21.07;9.53;;;;;;;1.74;77.09;97682.62;1721199;82;20998;-44
2022/04/01 11:51:02;;;;;;;20.85;6.03;;;;;;;1.76;76.78;97679.96;1702685;83;21007;-47
2022/04/01 11:53:31;;;;;;;12.60;5.92;;;;;;;1.76;76.99;97684.68;1717742;82;21006;-44
2022/04/01 11:56:00;;;;;;;14.10;6.30;;;;;;;1.72;76.66;97695.64;1717522;82;21564;-44
2022/04/01 11:58:28;;;;;;;16.00;4.67;;;;;;;1.73;76.26;97699.09;1716273;83;21595;-42
2022/04/01 12:00:54;;;;;;;9.20;4.47;;;;;;;1.72;76.18;97703.88;1687167;83;20999;-43
2022/04/01 12:03:21;;;;;;;18.77;6.12;;;;;;;1.68;75.78;97701.88;1717689;82;20971;-42
2022/04/01 12:05:53;;;;;;;21.23;5.90;;;;;;;1.69;76.53;97697.53;1717865;83;21010;-44